Time;durP1;ratioP1;P1;durP2;ratioP2;P2;SDS_P1;SDS_P2;PMS_P1;PMS_P2;Temp;Humidity;BMP_temperature;BMP_pressure;BME280_temperature;BME280_humidity;BME280_pressure;Samples;Min_cycle;Max_cycle;Signal;HPM_P1;HPM_P2
2022/04/06 00:00:05;;;;;;;14.32;5.60;;;;;;;8.98;100.00;100484.63;5054823;28;20029;-35
2022/04/06 00:02:30;;;;;;;13.23;5.88;;;;;;;8.99;100.00;100475.47;5054759;28;20032;-35
2022/04/06 00:04:55;;;;;;;19.13;6.40;;;;;;;8.96;100.00;100475.94;5054716;28;20036;-35
2022/04/06 00:07:21;;;;;;;12.27;5.40;;;;;;;8.97;100.00;100477.56;5054386;28;20039;-34
2022/04/06 00:09:46;;;;;;;13.77;5.97;;;;;;;8.96;100.00;100478.63;5054698;28;20032;-35
2022/04/06 00:12:11;;;;;;;16.27;5.33;;;;;;;8.74;100.00;100440.56;5054568;28;20029;-35
2022/04/06 00:14:37;;;;;;;12.57;5.23;;;;;;;8.95;100.00;100463.50;5054776;28;20043;-34
2022/04/06 00:17:05;;;;;;;16.48;6.00;;;;;;;8.95;100.00;100468.91;5054679;28;20031;-35
2022/04/06 00:19:32;;;;;;;12.98;5.35;;;;;;;8.92;100.00;100463.94;5054852;28;20052;-34
2022/04/06 00:21:58;;;;;;;10.52;4.70;;;;;;;8.89;100.00;100466.31;5054610;28;20080;-34
2022/04/06 00:24:24;;;;;;;15.77;6.88;;;;;;;8.92;100.00;100468.53;5054316;28;20025;-35
2022/04/06 00:26:49;;;;;;;15.13;6.15;;;;;;;8.91;100.00;100465.00;5054579;28;20079;-35
2022/04/06 00:29:14;;;;;;;18.30;5.77;;;;;;;8.93;100.00;100470.16;5054531;28;20025;-35
2022/04/06 00:31:40;;;;;;;17.23;6.37;;;;;;;8.88;100.00;100462.78;5054302;28;20029;-35
2022/04/06 00:34:05;;;;;;;16.93;5.03;;;;;;;8.91;100.00;100461.50;5054383;28;20466;-35
2022/04/06 00:36:30;;;;;;;11.10;4.80;;;;;;;8.90;100.00;100459.84;5054449;28;20146;-35
2022/04/06 00:38:56;;;;;;;15.67;6.00;;;;;;;8.90;100.00;100455.28;5053747;28;20443;-35
2022/04/06 00:41:21;;;;;;;11.93;5.23;;;;;;;8.90;100.00;100449.88;5053275;28;20794;-35
2022/04/06 00:44:13;;;;;;;12.57;4.67;;;;;;;8.88;100.00;100452.00;5053757;28;20107;-35
2022/04/06 00:46:39;;;;;;;10.85;5.05;;;;;;;8.85;100.00;100449.75;5053970;28;20084;-35
2022/04/06 00:49:07;;;;;;;10.82;4.68;;;;;;;8.86;100.00;100456.78;5053653;28;20106;-35
2022/04/06 00:51:33;;;;;;;12.88;5.22;;;;;;;8.82;100.00;100449.38;5054593;28;20033;-35
2022/04/06 00:53:59;;;;;;;15.32;5.57;;;;;;;8.83;100.00;100451.84;5053536;28;20082;-35
2022/04/06 00:56:24;;;;;;;15.02;5.15;;;;;;;8.84;100.00;100456.19;5053877;28;20029;-35
2022/04/06 00:58:50;;;;;;;13.48;4.57;;;;;;;8.84;100.00;100445.41;5053689;28;20029;-34
2022/04/06 01:01:15;;;;;;;15.50;4.87;;;;;;;8.68;100.00;100419.91;5052687;28;20025;-35
2022/04/06 01:03:40;;;;;;;11.43;4.43;;;;;;;8.82;100.00;100436.72;5053206;28;20329;-35
2022/04/06 01:06:07;;;;;;;13.27;4.67;;;;;;;8.79;100.00;100439.88;5053540;28;20033;-35
2022/04/06 01:08:33;;;;;;;13.82;5.35;;;;;;;8.83;100.00;100432.97;5053708;28;20659;-35
2022/04/06 01:10:58;;;;;;;15.40;5.22;;;;;;;8.70;100.00;100422.38;5053831;28;20029;-34
2022/04/06 01:13:25;;;;;;;13.07;4.85;;;;;;;8.77;100.00;100423.09;5053527;28;20108;-35
2022/04/06 01:15:50;;;;;;;14.20;5.03;;;;;;;8.76;100.00;100432.25;5053622;28;20033;-35
2022/04/06 01:18:15;;;;;;;11.17;4.50;;;;;;;8.72;100.00;100431.88;5053416;28;20441;-35
2022/04/06 01:20:41;;;;;;;14.37;4.43;;;;;;;8.73;100.00;100427.31;5053836;28;20116;-35
2022/04/06 01:23:06;;;;;;;15.73;5.47;;;;;;;8.75;100.00;100427.91;5053387;28;20041;-35
2022/04/06 01:25:35;;;;;;;13.23;4.53;;;;;;;8.75;100.00;100426.03;5053102;28;20485;-35
2022/04/06 01:28:00;;;;;;;11.07;4.60;;;;;;;8.75;100.00;100430.59;5053152;28;20032;-35
2022/04/06 01:30:26;;;;;;;11.93;4.38;;;;;;;8.68;100.00;100411.00;5053164;28;20033;-35
2022/04/06 01:32:51;;;;;;;11.40;4.43;;;;;;;8.74;100.00;100431.66;5053653;28;20045;-35
2022/04/06 01:35:17;;;;;;;14.17;5.33;;;;;;;8.65;100.00;100404.19;5053265;28;20735;-35
2022/04/06 01:37:42;;;;;;;8.57;3.80;;;;;;;8.73;100.00;100419.22;5052795;28;20035;-34
2022/04/06 01:40:08;;;;;;;12.15;4.65;;;;;;;8.72;100.00;100420.28;5053838;28;20028;-35
2022/04/06 01:42:34;;;;;;;12.43;4.53;;;;;;;8.61;100.00;100400.31;5052887;28;20021;-34
2022/04/06 01:45:00;;;;;;;11.80;3.83;;;;;;;8.69;100.00;100416.19;5051844;28;20037;-35
2022/04/06 01:47:25;;;;;;;9.10;4.68;;;;;;;8.71;100.00;100414.06;5052899;28;20330;-35
2022/04/06 01:52:35;;;;;;;11.60;4.32;;;;;;;8.54;100.00;100396.06;5053123;28;20044;-35
2022/04/06 01:55:02;;;;;;;;;;;;;;;8.71;100.00;100413.25;5053559;28;20044;-35
2022/04/06 01:57:29;;;;;;;;;;;;;;;8.73;100.00;100416.53;5053552;28;20365;-35
2022/04/06 01:59:55;;;;;;;13.73;3.87;;;;;;;8.68;100.00;100416.38;5052612;28;19912;-35
2022/04/06 02:02:22;;;;;;;11.75;3.63;;;;;;;8.69;100.00;100412.66;5052979;28;20597;-34
2022/04/06 02:04:47;;;;;;;13.45;4.63;;;;;;;8.70;100.00;100411.59;5052294;28;20527;-34
2022/04/06 02:07:15;;;;;;;12.95;3.97;;;;;;;8.67;99.80;100407.47;5053216;28;20112;-34
2022/04/06 02:09:41;;;;;;;13.57;3.72;;;;;;;8.67;100.00;100409.34;5052686;28;20037;-34
2022/04/06 02:12:08;;;;;;;12.88;4.47;;;;;;;8.65;99.79;100403.38;5055671;28;20523;-34
2022/04/06 02:14:33;;;;;;;9.48;3.80;;;;;;;8.61;100.00;100399.50;5056767;28;20033;-34
2022/04/06 02:17:00;;;;;;;12.40;3.28;;;;;;;8.64;100.00;100410.66;5055693;28;20032;-35
2022/04/06 02:19:26;;;;;;;13.82;4.03;;;;;;;8.66;99.57;100396.94;5057074;28;20029;-35
2022/04/06 02:21:51;;;;;;;11.40;3.50;;;;;;;8.66;99.09;100396.94;5056901;28;20029;-35
2022/04/06 02:24:18;;;;;;;13.33;3.50;;;;;;;8.66;98.55;100399.63;5056557;28;20457;-35
2022/04/06 02:26:44;;;;;;;12.98;3.65;;;;;;;8.64;99.03;100401.75;5057322;28;20655;-35
2022/04/06 02:29:09;;;;;;;13.82;4.22;;;;;;;8.64;98.92;100397.19;5056575;28;20040;-35
2022/04/06 02:31:35;;;;;;;10.80;3.30;;;;;;;8.52;98.05;100380.94;5057124;28;20427;-35
2022/04/06 02:34:00;;;;;;;9.33;3.20;;;;;;;8.54;98.25;100377.19;5056529;28;20032;-34
2022/04/06 02:36:25;;;;;;;11.17;3.63;;;;;;;8.59;98.10;100388.94;5056943;28;20029;-34
2022/04/06 02:38:51;;;;;;;11.50;3.87;;;;;;;8.59;98.35;100385.41;5056690;28;20432;-35
2022/04/06 02:41:17;;;;;;;7.60;2.80;;;;;;;8.59;97.88;100386.25;5056848;28;20025;-35
2022/04/06 02:43:42;;;;;;;10.55;3.00;;;;;;;8.59;97.24;100385.41;5056122;28;20021;-34
2022/04/06 02:46:07;;;;;;;8.10;2.83;;;;;;;8.57;98.15;100377.56;5055970;28;20053;-35
2022/04/06 02:48:33;;;;;;;18.87;4.57;;;;;;;8.55;97.48;100376.16;5055925;28;20438;-35
2022/04/06 02:50:59;;;;;;;10.18;3.10;;;;;;;8.56;97.84;100384.00;5056206;28;20462;-34
2022/04/06 02:53:24;;;;;;;10.52;3.63;;;;;;;8.51;97.60;100381.19;5056789;28;20040;-35
2022/04/06 02:55:49;;;;;;;10.37;3.27;;;;;;;8.48;97.81;100370.84;5056367;28;20100;-35
2022/04/06 02:58:15;;;;;;;8.30;2.70;;;;;;;8.37;97.55;100358.97;5055699;28;20416;-35
2022/04/06 03:00:41;;;;;;;12.05;3.60;;;;;;;8.44;97.42;100372.34;5056288;28;20057;-35
2022/04/06 03:03:06;;;;;;;5.77;2.13;;;;;;;8.44;97.32;100370.50;5056454;28;20114;-35
2022/04/06 03:05:32;;;;;;;10.63;3.70;;;;;;;8.32;97.06;100353.41;5056043;28;20349;-35
2022/04/06 03:07:57;;;;;;;10.02;2.88;;;;;;;8.40;97.33;100373.88;5055421;28;20037;-35
2022/04/06 03:10:22;;;;;;;6.53;2.97;;;;;;;8.39;97.56;100367.66;5056172;28;20132;-35
2022/04/06 03:12:48;;;;;;;11.53;3.03;;;;;;;8.36;96.76;100362.72;5055595;28;20040;-35
2022/04/06 03:15:14;;;;;;;11.80;2.93;;;;;;;8.36;96.57;100359.19;5056002;28;20036;-35
2022/04/06 03:17:41;;;;;;;6.30;2.58;;;;;;;8.32;97.42;100356.13;5055562;28;20033;-35
2022/04/06 03:20:08;;;;;;;9.93;2.83;;;;;;;8.31;97.00;100349.09;5055856;28;20154;-35
2022/04/06 03:22:33;;;;;;;11.23;3.17;;;;;;;8.32;97.35;100356.13;5054344;28;20340;-35
2022/04/06 03:24:59;;;;;;;8.07;2.67;;;;;;;8.29;96.31;100342.28;5055894;28;20025;-35
2022/04/06 03:27:24;;;;;;;12.30;3.00;;;;;;;8.28;97.04;100341.47;5055668;28;20271;-34
2022/04/06 03:29:49;;;;;;;10.70;2.93;;;;;;;8.31;95.93;100343.69;5055497;28;20037;-35
2022/04/06 03:32:15;;;;;;;7.73;2.90;;;;;;;8.29;95.35;100332.31;5055811;28;20033;-34
2022/04/06 03:34:40;;;;;;;7.67;2.60;;;;;;;8.30;96.14;100339.38;5055283;28;20060;-34
2022/04/06 03:37:06;;;;;;;7.78;2.70;;;;;;;8.29;94.83;100328.81;5055833;28;20036;-34
2022/04/06 03:39:32;;;;;;;10.57;2.83;;;;;;;8.28;95.30;100327.97;5055777;28;20028;-34
2022/04/06 03:41:57;;;;;;;7.27;3.07;;;;;;;8.25;95.64;100320.38;5055670;28;20094;-34
2022/04/06 03:44:22;;;;;;;10.07;2.93;;;;;;;8.27;95.60;100319.09;5054637;28;20029;-34
2022/04/06 03:46:48;;;;;;;6.53;2.40;;;;;;;8.26;94.57;100314.75;5055836;28;20032;-35
2022/04/06 03:49:14;;;;;;;9.20;2.80;;;;;;;8.24;94.74;100318.72;5055344;28;20025;-34
2022/04/06 03:51:39;;;;;;;9.30;2.78;;;;;;;8.24;95.16;100313.31;5055101;28;20488;-35
2022/04/06 03:54:04;;;;;;;7.93;2.00;;;;;;;8.23;94.79;100309.81;5054677;28;20036;-35
2022/04/06 03:56:30;;;;;;;6.97;2.23;;;;;;;8.24;93.38;100316.00;5054928;28;20584;-35
2022/04/06 03:58:55;;;;;;;9.53;2.60;;;;;;;8.23;93.64;100319.78;5055057;28;20033;-34
2022/04/06 04:01:21;;;;;;;10.13;2.30;;;;;;;8.18;93.34;100300.78;5054789;28;20028;-35
2022/04/06 04:03:47;;;;;;;9.65;2.53;;;;;;;8.26;93.26;100322.84;5054690;28;20102;-35
2022/04/06 04:06:12;;;;;;;13.65;3.03;;;;;;;8.21;93.61;100314.63;5054409;28;20472;-35
2022/04/06 04:08:38;;;;;;;12.10;2.93;;;;;;;8.24;92.89;100316.00;5054555;28;20029;-35
2022/04/06 04:11:03;;;;;;;8.97;2.40;;;;;;;8.24;92.33;100313.31;5054578;28;20266;-35
2022/04/06 04:13:29;;;;;;;8.33;2.60;;;;;;;8.26;92.65;100322.00;5054211;28;20041;-34
2022/04/06 04:15:54;;;;;;;7.38;2.22;;;;;;;8.23;91.74;100311.69;5054695;28;20108;-34
2022/04/06 04:18:20;;;;;;;7.30;2.77;;;;;;;8.24;91.33;100316.84;5054411;28;20477;-35
2022/04/06 04:20:45;;;;;;;9.30;2.10;;;;;;;8.27;91.59;100315.56;5054967;28;20029;-34
2022/04/06 04:23:14;;;;;;;5.43;1.80;;;;;;;8.25;92.16;100306.91;5054587;28;20088;-35
2022/04/06 04:25:40;;;;;;;5.60;1.52;;;;;;;8.22;92.03;100313.56;5055063;28;20117;-34
2022/04/06 04:28:05;;;;;;;10.40;2.45;;;;;;;8.23;91.24;100311.69;5054197;28;20450;-34
2022/04/06 04:30:31;;;;;;;6.93;2.47;;;;;;;8.23;91.60;100306.31;5054600;28;20108;-34
2022/04/06 04:32:56;;;;;;;7.32;2.28;;;;;;;8.22;91.14;100301.97;5054225;28;20032;-34
2022/04/06 04:35:22;;;;;;;8.00;2.20;;;;;;;8.16;91.66;100294.81;5052837;28;20036;-35
2022/04/06 04:37:47;;;;;;;6.30;2.10;;;;;;;8.17;90.92;100291.06;5053828;28;20025;-34
2022/04/06 04:40:16;;;;;;;7.90;2.13;;;;;;;8.20;91.80;100293.31;5054394;28;20373;-35
2022/04/06 04:42:41;;;;;;;6.40;2.15;;;;;;;8.16;92.02;100284.03;5053893;28;20036;-34
2022/04/06 04:45:08;;;;;;;7.40;2.15;;;;;;;8.17;91.50;100285.69;5054295;28;20049;-34
2022/04/06 04:47:34;;;;;;;8.27;2.30;;;;;;;8.28;92.03;100298.34;5053515;28;20032;-34
2022/04/06 04:49:59;;;;;;;11.73;2.20;;;;;;;8.16;92.56;100279.47;5054456;28;20028;-35
2022/04/06 04:52:25;;;;;;;10.83;2.80;;;;;;;8.22;92.51;100280.41;5053860;28;20029;-34
2022/04/06 04:54:50;;;;;;;7.03;2.73;;;;;;;8.21;93.00;100279.59;5054159;28;20035;-35
2022/04/06 04:57:16;;;;;;;8.67;2.60;;;;;;;8.26;93.28;100303.16;5053735;28;20060;-35
2022/04/06 04:59:41;;;;;;;9.48;3.05;;;;;;;8.24;93.27;100281.81;5053455;28;20028;-35
2022/04/06 05:02:07;;;;;;;10.53;3.57;;;;;;;8.27;93.93;100281.38;5053703;28;20029;-35
2022/04/06 05:04:32;;;;;;;8.23;2.70;;;;;;;8.26;94.08;100284.31;5053480;28;20051;-34
2022/04/06 05:06:57;;;;;;;7.40;2.60;;;;;;;8.20;94.13;100267.19;5053939;28;20032;-35
2022/04/06 05:09:22;;;;;;;8.30;2.57;;;;;;;8.28;94.16;100279.50;5054041;28;20033;-35
2022/04/06 05:11:48;;;;;;;12.40;3.67;;;;;;;8.11;94.28;100252.41;5054016;28;20128;-35
2022/04/06 05:14:13;;;;;;;10.50;3.30;;;;;;;8.27;94.57;100275.97;5053210;28;20029;-35
2022/04/06 05:16:38;;;;;;;12.33;3.23;;;;;;;8.30;95.33;100274.72;5053254;28;20154;-34
2022/04/06 05:19:04;;;;;;;8.93;3.37;;;;;;;8.27;95.29;100267.09;5053342;28;20033;-34
2022/04/06 05:21:29;;;;;;;9.73;3.70;;;;;;;8.25;95.07;100258.44;5053412;28;20029;-34
2022/04/06 05:23:57;;;;;;;15.23;3.80;;;;;;;8.20;95.60;100252.91;5053883;28;20059;-34
2022/04/06 05:26:22;;;;;;;8.93;3.28;;;;;;;8.27;95.23;100265.22;5053522;28;20048;-34
2022/04/06 05:28:47;;;;;;;13.65;3.50;;;;;;;8.31;95.65;100265.59;5053459;28;20025;-34
2022/04/06 05:31:13;;;;;;;11.43;3.73;;;;;;;8.31;96.15;100268.28;5053214;28;20021;-34
2022/04/06 05:33:38;;;;;;;11.90;3.67;;;;;;;8.19;95.21;100237.78;5053258;28;20040;-35
2022/04/06 05:36:04;;;;;;;9.57;3.13;;;;;;;8.35;94.74;100257.88;5053106;28;20033;-34
2022/04/06 05:38:30;;;;;;;13.43;3.72;;;;;;;8.33;95.06;100255.38;5053547;28;20029;-34
2022/04/06 05:40:56;;;;;;;11.77;3.60;;;;;;;8.35;95.11;100249.78;5053638;28;20051;-34
2022/04/06 05:43:21;;;;;;;11.83;3.20;;;;;;;8.15;95.23;100220.44;5052577;28;20532;-34
2022/04/06 05:45:46;;;;;;;10.63;3.50;;;;;;;8.28;94.77;100244.47;5052867;28;20041;-34
2022/04/06 05:48:12;;;;;;;10.33;2.83;;;;;;;8.38;94.03;100257.41;5052566;28;20075;-34
2022/04/06 05:50:38;;;;;;;10.90;2.80;;;;;;;8.32;94.03;100240.28;5052892;28;20067;-35
2022/04/06 05:53:03;;;;;;;6.95;2.58;;;;;;;8.31;93.29;100240.53;5053496;28;20040;-35
2022/04/06 05:55:28;;;;;;;8.53;2.67;;;;;;;8.39;92.99;100253.66;5053348;28;20111;-35
2022/04/06 05:57:54;;;;;;;7.20;2.67;;;;;;;8.35;93.36;100245.22;5052521;28;20021;-34
2022/04/06 06:00:20;;;;;;;12.77;2.93;;;;;;;8.41;92.99;100256.97;5053305;28;20021;-34
2022/04/06 06:02:45;;;;;;;6.78;2.30;;;;;;;8.43;93.08;100260.25;5052843;28;20303;-34
2022/04/06 06:05:11;;;;;;;6.23;2.27;;;;;;;8.45;92.60;100258.97;5053238;28;20380;-34
2022/04/06 06:07:36;;;;;;;8.07;2.20;;;;;;;8.43;91.87;100249.47;5052712;28;20623;-34
2022/04/06 06:10:03;;;;;;;9.07;2.47;;;;;;;8.46;92.41;100255.22;5051793;28;20029;-35
2022/04/06 06:12:29;;;;;;;7.38;2.17;;;;;;;8.48;91.78;100257.66;5052395;28;20025;-34
2022/04/06 06:14:55;;;;;;;10.70;3.15;;;;;;;8.50;91.21;100259.09;5053347;28;20098;-35
2022/04/06 06:17:20;;;;;;;7.45;2.22;;;;;;;8.47;91.96;100256.84;5052527;28;20033;-35
2022/04/06 06:19:46;;;;;;;7.03;2.43;;;;;;;8.54;91.17;100261.31;5052259;28;20481;-35
2022/04/06 06:22:11;;;;;;;6.60;2.60;;;;;;;8.52;90.48;100259.69;5052269;28;20033;-35
2022/04/06 06:24:36;;;;;;;7.93;2.33;;;;;;;8.55;89.91;100268.38;5052348;28;20489;-35
2022/04/06 06:27:03;;;;;;;6.57;1.67;;;;;;;8.56;90.10;100257.34;5052870;28;20462;-34
2022/04/06 06:29:28;;;;;;;6.25;1.55;;;;;;;8.57;88.03;100267.06;5052478;28;20048;-34
2022/04/06 06:31:54;;;;;;;5.87;1.83;;;;;;;8.57;87.53;100260.84;5052547;28;20057;-34
2022/04/06 06:34:19;;;;;;;7.43;1.88;;;;;;;8.52;87.41;100248.06;5052450;28;20060;-34
2022/04/06 06:36:45;;;;;;;7.57;2.10;;;;;;;8.55;86.59;100246.81;5052772;28;20462;-34
2022/04/06 06:39:10;;;;;;;7.73;1.77;;;;;;;8.43;84.44;100226.03;5052101;28;20032;-34
2022/04/06 06:41:35;;;;;;;4.07;1.37;;;;;;;8.58;84.68;100254.41;5052420;28;20106;-34
2022/04/06 06:44:01;;;;;;;4.90;1.50;;;;;;;8.63;83.07;100252.66;5051980;28;20032;-34
2022/04/06 06:46:27;;;;;;;5.15;1.33;;;;;;;8.64;82.75;100254.31;5052847;28;20128;-34
2022/04/06 06:48:54;;;;;;;5.38;1.30;;;;;;;8.68;81.81;100251.97;5052247;28;20029;-34
2022/04/06 06:51:19;;;;;;;3.15;1.10;;;;;;;8.69;82.51;100246.34;5052222;28;20458;-34
2022/04/06 06:53:44;;;;;;;4.17;1.30;;;;;;;8.67;82.15;100236.84;5052077;28;20040;-34
2022/04/06 06:56:10;;;;;;;4.60;1.40;;;;;;;8.76;81.62;100246.22;5052472;28;20032;-35
2022/04/06 06:58:36;;;;;;;5.70;1.55;;;;;;;8.77;80.46;100247.88;5056076;28;20064;-34
2022/04/06 07:01:01;;;;;;;6.72;1.65;;;;;;;8.72;80.26;100236.97;5056049;28;20385;-35
2022/04/06 07:03:26;;;;;;;5.87;1.40;;;;;;;8.80;80.58;100238.50;5055825;28;20063;-34
2022/04/06 07:05:52;;;;;;;4.82;1.40;;;;;;;8.84;80.09;100248.59;5056411;28;20021;-34
2022/04/06 07:08:18;;;;;;;5.43;1.95;;;;;;;8.83;79.45;100238.84;5055628;28;20104;-34
2022/04/06 07:10:44;;;;;;;5.47;1.40;;;;;;;8.88;80.03;100241.69;5055650;28;20112;-34
2022/04/06 07:13:12;;;;;;;4.15;1.27;;;;;;;8.88;79.46;100238.13;5055924;28;20036;-35
2022/04/06 07:15:38;;;;;;;4.63;1.50;;;;;;;8.88;79.17;100235.44;5056579;28;20060;-34
2022/04/06 07:18:05;;;;;;;;;;;;;;;8.93;79.52;100239.09;5055912;28;20112;-35
2022/04/06 07:20:31;;;;;;;6.10;1.48;;;;;;;8.86;79.98;100226.78;5055771;28;19999;-34
2022/04/06 07:22:57;;;;;;;3.72;1.30;;;;;;;8.83;78.35;100227.25;5055362;28;20053;-35
2022/04/06 07:25:24;;;;;;;6.18;1.30;;;;;;;8.95;78.75;100230.78;5055309;28;20485;-35
2022/04/06 07:27:49;;;;;;;;;;;;;;;8.96;78.77;100232.41;5055980;28;20086;-34
2022/04/06 07:30:15;;;;;;;5.05;1.55;;;;;;;8.93;78.43;100222.94;5055149;28;19908;-35
2022/04/06 07:32:40;;;;;;;5.03;1.20;;;;;;;8.97;80.02;100207.06;5055446;28;20040;-34
2022/04/06 07:35:07;;;;;;;3.33;1.33;;;;;;;8.89;79.45;100200.19;5055785;28;20505;-34
2022/04/06 07:37:38;;;;;;;5.13;1.25;;;;;;;8.73;79.65;100168.50;5055863;28;20064;-35
2022/04/06 07:40:05;;;;;;;4.13;1.00;;;;;;;8.79;81.24;100183.78;5055566;28;20029;-34
2022/04/06 07:42:30;;;;;;;3.97;1.15;;;;;;;8.92;80.27;100197.00;5053732;28;20128;-34
2022/04/06 07:44:56;;;;;;;3.37;1.30;;;;;;;9.01;81.49;100194.75;5055141;28;20057;-34
2022/04/06 07:47:27;;;;;;;5.60;1.20;;;;;;;9.00;81.76;100188.56;5055008;28;20025;-34
2022/04/06 07:49:52;;;;;;;6.35;1.88;;;;;;;9.08;82.70;100187.38;5054706;28;20028;-35
2022/04/06 07:52:22;;;;;;;6.13;1.90;;;;;;;9.19;83.26;100189.22;5055340;28;20377;-34
2022/04/06 07:54:47;;;;;;;5.75;1.40;;;;;;;9.20;83.70;100174.69;5054773;28;20041;-34
2022/04/06 07:57:12;;;;;;;7.30;2.03;;;;;;;9.32;83.19;100182.75;5055608;28;20082;-34
2022/04/06 07:59:37;;;;;;;4.63;1.67;;;;;;;9.27;84.65;100172.69;5055058;28;20330;-35
2022/04/06 08:02:03;;;;;;;7.33;2.87;;;;;;;9.38;83.93;100186.38;5055218;28;20057;-35
2022/04/06 08:04:28;;;;;;;4.67;1.70;;;;;;;9.39;84.26;100191.53;5054850;28;20335;-34
2022/04/06 08:06:53;;;;;;;4.00;1.97;;;;;;;9.34;84.89;100183.31;5055160;28;20017;-34
2022/04/06 08:09:19;;;;;;;6.07;2.17;;;;;;;9.30;84.89;100190.25;5054163;28;20505;-34
2022/04/06 08:11:44;;;;;;;7.30;1.90;;;;;;;9.25;85.02;100188.28;5054562;28;20029;-34
2022/04/06 08:14:09;;;;;;;5.47;1.90;;;;;;;9.21;85.71;100180.88;5054960;28;20242;-35
2022/04/06 08:16:35;;;;;;;6.70;1.93;;;;;;;9.13;84.97;100178.56;5055228;28;20203;-34
2022/04/06 08:19:00;;;;;;;7.57;2.40;;;;;;;9.05;85.70;100176.25;5054609;28;20032;-34
2022/04/06 08:21:25;;;;;;;7.80;1.90;;;;;;;9.12;86.41;100191.22;5054934;28;20029;-34
2022/04/06 08:23:50;;;;;;;5.67;2.20;;;;;;;9.08;86.33;100190.06;5054102;28;20021;-34
2022/04/06 08:26:16;;;;;;;4.23;2.00;;;;;;;9.04;85.67;100178.13;5054276;28;20047;-34
2022/04/06 08:28:41;;;;;;;6.40;1.83;;;;;;;9.15;86.57;100187.25;5053135;28;20017;-34
2022/04/06 08:31:07;;;;;;;4.95;1.70;;;;;;;9.18;87.21;100186.78;5054414;28;20106;-35
2022/04/06 08:33:32;;;;;;;6.37;2.20;;;;;;;9.16;86.71;100183.47;5054055;28;20033;-34
2022/04/06 08:35:57;;;;;;;5.77;2.20;;;;;;;9.15;85.81;100190.75;5054777;28;20017;-35
2022/04/06 08:38:23;;;;;;;6.10;2.07;;;;;;;9.16;87.51;100184.28;5053942;28;20480;-35
2022/04/06 08:40:48;;;;;;;7.57;2.10;;;;;;;9.16;86.53;100189.69;5054739;28;20032;-34
2022/04/06 08:43:15;;;;;;;6.20;2.30;;;;;;;9.19;86.49;100177.63;5053905;28;20035;-34
2022/04/06 08:45:40;;;;;;;6.97;2.50;;;;;;;9.23;86.07;100176.09;5054234;28;20423;-35
2022/04/06 08:48:07;;;;;;;7.28;2.05;;;;;;;9.31;86.08;100173.00;5054203;28;20079;-35
2022/04/06 08:50:35;;;;;;;5.25;1.75;;;;;;;9.38;85.56;100178.28;5054190;28;20075;-34
2022/04/06 08:53:03;;;;;;;9.18;2.08;;;;;;;9.20;86.17;100147.69;5053491;28;20033;-34
2022/04/06 08:55:29;;;;;;;6.55;2.38;;;;;;;9.36;85.74;100178.50;5054131;28;20025;-34
2022/04/06 08:57:56;;;;;;;4.95;1.83;;;;;;;9.38;85.75;100181.78;5054233;28;20029;-34
2022/04/06 09:00:23;;;;;;;5.63;1.90;;;;;;;9.30;86.41;100163.28;5054147;28;20044;-35
2022/04/06 09:02:48;;;;;;;6.03;1.70;;;;;;;9.16;86.56;100151.94;5053639;28;20025;-34
2022/04/06 09:05:14;;;;;;;5.22;2.17;;;;;;;9.39;86.84;100182.63;5053860;28;20036;-34
2022/04/06 09:07:41;;;;;;;6.18;1.83;;;;;;;9.33;88.64;100175.47;5053397;28;20458;-35
2022/04/06 09:10:07;;;;;;;7.80;2.83;;;;;;;9.39;88.35;100188.81;5054195;28;20058;-35
2022/04/06 09:12:33;;;;;;;8.98;2.47;;;;;;;9.40;88.34;100186.94;5053561;28;20029;-35
2022/04/06 09:15:09;;;;;;;5.25;1.90;;;;;;;9.45;90.16;100177.06;5054092;28;20032;-35
2022/04/06 09:17:48;;;;;;;6.95;2.20;;;;;;;9.41;90.81;100180.47;5053843;28;20035;-34
2022/04/06 09:20:14;;;;;;;6.03;1.98;;;;;;;9.42;91.84;100188.34;5052464;28;20029;-35
2022/04/06 09:22:41;;;;;;;6.40;1.90;;;;;;;9.27;91.33;100172.69;5052349;28;20397;-34
2022/04/06 09:25:07;;;;;;;8.07;2.10;;;;;;;9.35;92.40;100182.25;5053192;28;20488;-35
2022/04/06 09:27:33;;;;;;;6.90;2.22;;;;;;;9.32;91.71;100180.06;5053685;28;20020;-35
2022/04/06 09:29:59;;;;;;;5.80;1.90;;;;;;;9.31;90.80;100185.66;5053845;28;20028;-35
2022/04/06 09:32:24;;;;;;;4.88;1.70;;;;;;;9.17;90.80;100160.84;5053722;28;20028;-35
2022/04/06 09:34:50;;;;;;;6.20;1.95;;;;;;;9.28;91.89;100177.00;5052720;28;20033;-35
2022/04/06 09:37:31;;;;;;;5.57;2.20;;;;;;;9.28;91.23;100184.28;5053462;28;20469;-35
2022/04/06 09:40:06;;;;;;;5.82;1.80;;;;;;;9.30;90.72;100168.66;5053210;28;20112;-35
2022/04/06 09:42:32;;;;;;;7.03;1.80;;;;;;;9.29;92.12;100167.03;5053612;28;20040;-34
2022/04/06 09:47:58;;;;;;;6.72;1.80;;;;;;;9.39;91.13;100178.03;5053543;28;20457;-34
2022/04/06 09:50:29;;;;;;;5.03;1.90;;;;;;;9.38;91.02;100172.88;5052719;28;20029;-34
2022/04/06 09:53:00;;;;;;;7.50;2.30;;;;;;;9.07;92.06;100126.38;5053302;28;20033;-35
2022/04/06 09:55:26;;;;;;;6.90;2.30;;;;;;;9.35;91.46;100174.16;5053234;28;20033;-35
2022/04/06 09:57:58;;;;;;;5.85;2.10;;;;;;;9.31;91.20;100162.22;5053364;28;20039;-35
2022/04/06 10:00:26;;;;;;;6.90;2.25;;;;;;;9.29;93.76;100150.84;5052921;28;20366;-34
2022/04/06 10:03:03;;;;;;;5.32;2.10;;;;;;;9.32;93.67;100155.78;5052765;28;20479;-35
2022/04/06 10:05:30;;;;;;;5.90;2.60;;;;;;;9.37;93.91;100161.28;5053619;28;20040;-35
2022/04/06 10:07:59;;;;;;;7.53;2.30;;;;;;;9.37;93.93;100163.97;5052487;28;20029;-35
2022/04/06 10:10:24;;;;;;;4.75;1.85;;;;;;;9.37;93.17;100152.34;5053073;28;20032;-35
2022/04/06 10:12:51;;;;;;;6.93;2.10;;;;;;;9.39;94.33;100152.94;5052718;28;20385;-34
2022/04/06 10:15:17;;;;;;;4.20;1.73;;;;;;;9.40;94.43;100151.88;5052775;28;20025;-34
2022/04/06 10:17:43;;;;;;;5.40;2.10;;;;;;;9.31;94.34;100146.03;5052731;28;20048;-35
2022/04/06 10:20:25;;;;;;;7.55;2.50;;;;;;;9.33;93.76;100157.41;5053022;28;20117;-35
2022/04/06 10:23:05;;;;;;;8.68;2.65;;;;;;;9.29;94.94;100154.38;5052707;28;20044;-35
2022/04/06 10:25:45;;;;;;;6.43;2.58;;;;;;;9.24;94.82;100143.47;5052659;28;20055;-35
2022/04/06 10:28:12;;;;;;;6.72;2.75;;;;;;;9.19;95.25;100137.97;5053380;28;20367;-35
2022/04/06 10:30:38;;;;;;;6.55;2.85;;;;;;;9.30;96.85;100149.78;5052901;28;20028;-34
2022/04/06 10:33:18;;;;;;;9.80;2.97;;;;;;;9.27;95.26;100142.16;5055230;28;20075;-35
2022/04/06 10:35:44;;;;;;;7.20;2.80;;;;;;;9.26;94.73;100140.53;5057353;28;20059;-34
2022/04/06 10:38:09;;;;;;;6.80;2.70;;;;;;;9.31;94.85;100147.91;5057024;28;20025;-34
2022/04/06 10:40:46;;;;;;;7.63;2.83;;;;;;;9.15;94.53;100123.31;5056525;28;20079;-35
2022/04/06 10:43:43;;;;;;;6.03;2.15;;;;;;;9.29;95.20;100140.88;5056200;28;22061;-34
2022/04/06 10:46:18;;;;;;;6.65;2.50;;;;;;;9.22;95.31;100134.81;5056183;28;20052;-34
2022/04/06 10:49:07;;;;;;;6.88;2.60;;;;;;;9.24;95.96;100135.38;5056475;28;20398;-35
2022/04/06 10:51:43;;;;;;;6.05;2.13;;;;;;;9.24;94.99;100134.56;5055576;28;20045;-35
2022/04/06 10:54:14;;;;;;;11.48;2.55;;;;;;;9.22;94.69;100136.66;5056632;28;20051;-35
2022/04/06 10:57:01;;;;;;;8.85;2.30;;;;;;;9.27;94.85;100136.75;5056761;28;20103;-35
2022/04/06 10:59:30;;;;;;;4.70;1.80;;;;;;;9.30;93.62;100125.50;5056186;28;20090;-34
2022/04/06 11:02:16;;;;;;;6.00;1.83;;;;;;;9.34;93.88;100123.16;5056358;28;20032;-35
2022/04/06 11:04:42;;;;;;;3.88;1.60;;;;;;;9.35;94.34;100125.59;5056157;28;20025;-35
2022/04/06 11:07:08;;;;;;;5.53;1.70;;;;;;;9.38;93.47;100121.63;5056267;28;20497;-35
2022/04/06 11:12:28;;;;;;;4.72;1.63;;;;;;;9.47;92.60;100120.16;5055761;28;20415;-34
2022/04/06 11:14:59;;;;;;;6.25;1.90;;;;;;;9.51;92.86;100122.13;5056683;28;20082;-35
2022/04/06 11:20:02;;;;;;;7.38;1.90;;;;;;;9.55;91.55;100122.47;5055749;28;20068;-35
2022/04/06 11:22:28;;;;;;;4.07;1.50;;;;;;;9.57;91.47;100109.56;5055478;28;20106;-35
2022/04/06 11:24:56;;;;;;;3.60;1.35;;;;;;;9.60;91.06;100108.25;5056088;28;20025;-35
2022/04/06 11:27:29;;;;;;;6.65;1.70;;;;;;;9.55;89.26;100099.00;5055702;28;20389;-35
2022/04/06 11:30:05;;;;;;;2.88;1.38;;;;;;;9.51;89.94;100099.72;5055806;28;20388;-35
2022/04/06 11:32:31;;;;;;;4.63;1.77;;;;;;;9.59;89.61;100098.50;5056131;28;20102;-35
2022/04/06 11:35:08;;;;;;;6.00;2.03;;;;;;;9.63;89.37;100105.06;5055364;28;20029;-35
2022/04/06 11:37:48;;;;;;;6.25;1.38;;;;;;;9.58;89.64;100083.38;5055876;28;20107;-35